首页
METAR-TAF:

METAR-TAF

机场 :

杜魯斯, 明尼蘇達州, 美国

纬度: 46-50-34N, 经度: 092-13-34W, 海拔: 435米

当前天气观测

该预报发布于51分钟前的01:55 UTC
风速11节,风向
温度 -2°C
湿度 63%
气压 1026 hPa
能見度: 16.1公里
少量云层高于3900英尺
阴天层高于5500英尺

METAR: KDLH 260155Z 01011KT 10SM FEW039 OVC055 M02/M08 A3029 RMK AO2 SLP284 T10171083

时间: 20:46 (02:46 UTC)

预报

该预报发布于3小时和7分钟前的23:39 UTC
预报有效从26日的 00点(UTC)到 26日的 24点(UTC)
风速5节,风向多变
能見度: 10公里
阴天层高于6000英尺
从 26日的 0600点(UTC)
风速6节,风向
能見度: 10公里
多云层高于2600英尺
附近有阵雨
从 26日的 1100点(UTC)
风速6节,风向北转西北
能見度: 10公里
多云层高于3500英尺
附近有阵雨
从 26日的 1200点(UTC)
风速6节,风向北转西北
能見度: 10公里
多云层高于2900英尺
从 26日的 2300点(UTC)
风速5节,风向北转西北
能見度: 10公里
多云层高于3500英尺

TAF: KDLH 252339Z 2600/2624 VRB05KT P6SM OVC060 FM260600 35006KT P6SM VCSH BKN026 FM261100 34006KT P6SM VCSH BKN035 FM261200 34006KT P6SM BKN029 FM262300 34005KT P6SM BKN035

超过4000个机场的气象观测和天气预报(METAR&TAF报告)。

可查询的气象台以黄色和红色小点在地图上表示。

将鼠标移到小点上方,可查看气象台名称。

然后点击查看天气观测和预报。

如需切换地图:点击带黑十字的绿色按钮放大地图;点击带横线的绿色按钮缩小地图;或者点击绿色箭头查看邻近地区的地图。


METAR-TAF: